createdAt,value
2023-03-21T00:00:48.071Z,80.10
2023-03-21T00:03:54.114Z,80.70
2023-03-21T00:06:59.752Z,80.20
2023-03-21T00:10:15.382Z,80.10
2023-03-21T00:13:22.366Z,80.00
2023-03-21T00:16:38.961Z,80.10
2023-03-21T00:19:45.742Z,80.10
2023-03-21T00:22:53.564Z,80.10
2023-03-21T00:25:57.886Z,80.20
2023-03-21T00:29:04.052Z,80.40
2023-03-21T00:32:07.929Z,80.40
2023-03-21T00:35:51.594Z,80.30
2023-03-21T00:38:40.370Z,80.30
2023-03-21T00:41:46.695Z,80.40
2023-03-21T00:44:50.597Z,80.40
2023-03-21T00:47:56.843Z,80.40
2023-03-21T00:51:01.147Z,80.50
2023-03-21T00:54:08.945Z,80.60
2023-03-21T00:57:13.077Z,80.50
2023-03-21T01:00:20.441Z,80.50
2023-03-21T01:03:26.054Z,80.60
2023-03-21T01:06:32.174Z,80.60
2023-03-21T01:09:39.686Z,80.60
2023-03-21T01:12:45.844Z,80.60
2023-03-21T01:15:52.496Z,80.70
2023-03-21T01:18:59.067Z,80.70
2023-03-21T01:22:03.381Z,80.70
2023-03-21T01:25:21.947Z,80.80
2023-03-21T01:28:28.383Z,80.80
2023-03-21T01:31:34.452Z,80.80
2023-03-21T01:34:38.577Z,80.80
2023-03-21T01:37:44.671Z,80.80
2023-03-21T01:40:52.071Z,80.90
2023-03-21T01:44:03.747Z,80.90
2023-03-21T01:47:12.866Z,81.00
2023-03-21T01:50:25.716Z,80.90
2023-03-21T01:54:00.142Z,80.90
2023-03-21T01:57:17.116Z,80.90
2023-03-21T02:00:29.002Z,80.90
2023-03-21T02:03:52.082Z,80.90
2023-03-21T02:07:28.211Z,80.90
2023-03-21T02:10:41.158Z,80.90
2023-03-21T02:13:53.618Z,80.90
2023-03-21T02:17:09.730Z,81.00
2023-03-21T02:20:41.924Z,81.00
2023-03-21T02:24:20.805Z,81.20
2023-03-21T02:27:26.379Z,81.10
2023-03-21T02:31:10.740Z,81.00
2023-03-21T02:34:56.110Z,81.20
2023-03-21T02:38:09.670Z,81.20
2023-03-21T02:41:20.190Z,81.10
2023-03-21T02:44:35.761Z,81.20
2023-03-21T02:47:45.061Z,81.20
2023-03-21T02:50:54.748Z,81.20
2023-03-21T02:54:27.904Z,81.20
2023-03-21T02:57:41.694Z,81.30
2023-03-21T03:00:48.859Z,81.30
2023-03-21T03:04:06.981Z,81.30
2023-03-21T03:07:21.119Z,81.30
2023-03-21T03:10:40.225Z,81.40
2023-03-21T03:14:25.198Z,81.40
2023-03-21T03:17:51.360Z,81.50
2023-03-21T03:21:02.421Z,81.60
2023-03-21T03:24:13.383Z,81.40
2023-03-21T03:27:25.396Z,81.50
2023-03-21T03:30:41.173Z,81.50
2023-03-21T03:33:51.470Z,81.50
2023-03-21T03:37:00.106Z,81.50
2023-03-21T03:40:09.369Z,81.60
2023-03-21T03:43:24.671Z,81.60
2023-03-21T03:46:33.531Z,81.60
2023-03-21T03:49:48.577Z,81.60
2023-03-21T03:52:58.794Z,81.60
2023-03-21T03:56:11.720Z,81.60
2023-03-21T03:59:21.343Z,81.60
2023-03-21T04:02:59.614Z,81.60
2023-03-21T04:06:05.604Z,81.60
2023-03-21T04:09:20.693Z,81.60
2023-03-21T04:12:26.692Z,81.60
2023-03-21T04:15:53.405Z,81.60
2023-03-21T04:18:57.409Z,81.70
2023-03-21T04:22:03.565Z,81.70
2023-03-21T04:25:14.134Z,81.70
2023-03-21T04:28:21.713Z,81.80
2023-03-21T04:31:36.891Z,81.80
2023-03-21T04:34:53.437Z,81.80
2023-03-21T04:37:58.936Z,81.80
2023-03-21T04:41:05.361Z,81.80
2023-03-21T04:44:11.121Z,81.80
2023-03-21T04:47:20.025Z,81.90
2023-03-21T04:50:24.582Z,81.90
2023-03-21T04:53:30.851Z,81.90
2023-03-21T04:56:35.612Z,81.90
2023-03-21T04:59:42.866Z,81.90
2023-03-21T05:02:49.168Z,82.00
2023-03-21T05:05:55.479Z,82.00
2023-03-21T05:09:04.616Z,82.00
2023-03-21T05:12:11.902Z,82.00
2023-03-21T05:15:15.902Z,82.00
2023-03-21T05:18:24.588Z,82.00
2023-03-21T05:21:42.833Z,81.90
2023-03-21T05:24:54.790Z,82.00
2023-03-21T05:28:21.904Z,82.00
2023-03-21T05:31:28.572Z,82.00
2023-03-21T05:34:44.964Z,82.10
2023-03-21T05:37:51.145Z,82.10
2023-03-21T05:40:56.801Z,82.00
2023-03-21T05:44:03.702Z,82.10
2023-03-21T05:47:08.046Z,82.10
2023-03-21T05:50:25.863Z,82.20
2023-03-21T05:53:46.137Z,82.30
2023-03-21T05:56:54.023Z,82.20
2023-03-21T06:00:21.323Z,82.30
2023-03-21T06:03:46.992Z,82.30
2023-03-21T06:06:59.849Z,82.40
2023-03-21T06:10:07.353Z,82.30
2023-03-21T06:13:12.473Z,82.40
2023-03-21T06:16:18.664Z,82.40
2023-03-21T06:19:23.340Z,82.40
2023-03-21T06:22:47.677Z,82.40
2023-03-21T06:25:51.559Z,82.30
2023-03-21T06:28:57.999Z,82.40
2023-03-21T06:32:02.096Z,82.40
2023-03-21T06:35:09.464Z,82.40
2023-03-21T06:38:17.020Z,82.50
2023-03-21T06:41:22.889Z,82.50
2023-03-21T06:44:34.722Z,82.50
2023-03-21T06:47:45.690Z,82.50
2023-03-21T06:51:01.646Z,82.50
2023-03-21T06:54:12.933Z,82.60
2023-03-21T06:57:28.707Z,82.60
2023-03-21T07:00:34.964Z,82.70
2023-03-21T07:03:39.699Z,82.70
2023-03-21T07:06:45.930Z,82.70
2023-03-21T07:09:52.087Z,82.70
2023-03-21T07:12:59.877Z,82.70
2023-03-21T07:16:12.781Z,82.80
2023-03-21T07:19:19.170Z,82.70
2023-03-21T07:22:23.211Z,82.80
2023-03-21T07:25:31.356Z,82.80
2023-03-21T07:28:35.509Z,82.60
2023-03-21T07:31:42.448Z,82.70
2023-03-21T07:34:46.446Z,82.70
2023-03-21T07:37:52.611Z,82.70
2023-03-21T07:41:00.302Z,82.80
2023-03-21T07:44:09.517Z,82.70
2023-03-21T07:47:13.424Z,82.60
2023-03-21T07:50:19.826Z,82.70
2023-03-21T07:53:24.217Z,82.70
2023-03-21T07:56:32.249Z,82.80
2023-03-21T07:59:36.288Z,82.80
2023-03-21T08:02:42.305Z,82.90
2023-03-21T08:05:46.096Z,83.00
2023-03-21T08:08:52.291Z,82.90
2023-03-21T08:11:58.357Z,82.80
2023-03-21T08:15:04.269Z,82.90
2023-03-21T08:18:08.288Z,82.90
2023-03-21T08:21:14.242Z,82.90
2023-03-21T08:24:18.442Z,83.00
2023-03-21T08:27:26.510Z,83.10
2023-03-21T08:30:30.912Z,83.10
2023-03-21T08:33:36.952Z,83.10
2023-03-21T08:36:41.347Z,83.10
2023-03-21T08:39:47.270Z,83.10
2023-03-21T08:42:52.838Z,82.90
2023-03-21T08:45:58.837Z,83.00
2023-03-21T08:49:02.785Z,83.00
2023-03-21T08:52:08.931Z,83.00
2023-03-21T08:55:14.022Z,82.90
2023-03-21T08:58:22.109Z,83.10
2023-03-21T09:01:26.442Z,83.10
2023-03-21T09:04:33.236Z,83.20
2023-03-21T09:07:37.830Z,83.20
2023-03-21T09:10:43.699Z,83.30
2023-03-21T09:13:49.528Z,83.30
2023-03-21T09:16:55.849Z,83.30
2023-03-21T09:19:59.906Z,83.30
2023-03-21T09:23:06.106Z,83.30
2023-03-21T09:26:10.853Z,83.30
2023-03-21T09:29:20.733Z,83.20
2023-03-21T09:32:25.209Z,83.30
2023-03-21T09:35:31.814Z,83.20
2023-03-21T09:38:37.076Z,83.20
2023-03-21T09:42:04.717Z,83.30
2023-03-21T09:45:18.190Z,83.30
2023-03-21T09:48:50.627Z,83.20
2023-03-21T09:52:03.040Z,83.20
2023-03-21T09:55:19.258Z,83.20
2023-03-21T09:58:29.737Z,83.30
2023-03-21T10:01:41.342Z,83.20
2023-03-21T10:04:46.494Z,83.20
2023-03-21T10:07:57.496Z,83.10
2023-03-21T10:11:08.078Z,83.10
2023-03-21T10:14:20.816Z,83.10
2023-03-21T10:17:32.840Z,83.10
2023-03-21T10:20:39.935Z,83.10
2023-03-21T10:23:43.969Z,83.10
2023-03-21T10:26:52.439Z,83.20
2023-03-21T10:29:56.881Z,83.20
2023-03-21T10:33:09.006Z,83.10
2023-03-21T10:36:17.057Z,83.20
2023-03-21T10:39:28.777Z,83.20
2023-03-21T10:42:35.747Z,83.20
2023-03-21T10:45:41.934Z,83.20
2023-03-21T10:48:53.954Z,83.20
2023-03-21T10:52:06.204Z,83.30
2023-03-21T10:55:21.923Z,83.30
2023-03-21T10:58:32.709Z,83.30
2023-03-21T11:01:40.608Z,83.20
2023-03-21T11:04:49.772Z,83.30
2023-03-21T11:08:02.325Z,83.30
2023-03-21T11:11:11.837Z,83.30
2023-03-21T11:14:29.345Z,83.30
2023-03-21T11:17:36.933Z,83.40
2023-03-21T11:20:49.697Z,83.30
2023-03-21T11:23:57.776Z,83.30
2023-03-21T11:27:01.915Z,83.20
2023-03-21T11:30:22.771Z,83.30
2023-03-21T11:33:30.205Z,83.30
2023-03-21T11:36:40.297Z,83.20
2023-03-21T11:39:47.003Z,83.20
2023-03-21T11:42:55.047Z,83.20
2023-03-21T11:46:00.542Z,83.20
2023-03-21T11:49:07.140Z,83.20
2023-03-21T11:52:23.128Z,83.30
2023-03-21T11:55:45.711Z,83.30
2023-03-21T11:59:21.976Z,83.30
2023-03-21T12:02:59.451Z,83.30
2023-03-21T12:06:06.774Z,83.30
2023-03-21T12:09:39.362Z,83.20
2023-03-21T12:12:51.085Z,83.20
2023-03-21T12:16:09.256Z,83.20
2023-03-21T12:19:46.102Z,83.10
2023-03-21T12:23:05.108Z,83.20
2023-03-21T12:26:22.638Z,83.10
2023-03-21T12:29:45.569Z,83.10
2023-03-21T12:33:04.218Z,83.10
2023-03-21T12:36:24.327Z,83.00
2023-03-21T12:39:32.572Z,82.90
2023-03-21T12:43:09.138Z,82.80
2023-03-21T12:46:19.483Z,82.80
2023-03-21T12:49:32.131Z,82.70
2023-03-21T12:52:40.633Z,82.70
2023-03-21T12:55:46.978Z,82.70
2023-03-21T12:58:57.949Z,82.70
2023-03-21T13:02:18.771Z,82.60
2023-03-21T13:05:29.233Z,82.60
2023-03-21T13:08:43.091Z,83.00
2023-03-21T13:11:48.601Z,82.40
2023-03-21T13:15:12.436Z,82.30
2023-03-21T13:18:37.867Z,82.10
2023-03-21T13:21:51.769Z,82.10
2023-03-21T13:25:00.742Z,82.10
2023-03-21T13:28:07.740Z,82.00
2023-03-21T13:31:48.887Z,82.00
2023-03-21T13:34:58.849Z,82.00
2023-03-21T13:38:11.652Z,81.80
2023-03-21T13:41:20.661Z,81.80
2023-03-21T13:44:37.723Z,81.70
2023-03-21T13:47:55.052Z,81.70
2023-03-21T13:51:03.163Z,81.60
2023-03-21T13:54:20.106Z,81.60
2023-03-21T13:57:39.937Z,81.60
2023-03-21T14:00:46.346Z,81.60
2023-03-21T14:03:58.464Z,81.90
2023-03-21T14:07:06.723Z,81.50
2023-03-21T14:10:21.605Z,82.10
2023-03-21T14:13:29.784Z,81.50
2023-03-21T14:16:35.926Z,81.40
2023-03-21T14:19:43.932Z,81.40
2023-03-21T14:22:49.571Z,81.50
2023-03-21T14:25:55.664Z,81.30
2023-03-21T14:29:00.030Z,81.30
2023-03-21T14:32:07.126Z,81.30
2023-03-21T14:35:14.029Z,81.30
2023-03-21T14:38:22.415Z,81.30
2023-03-21T14:41:27.769Z,81.20
2023-03-21T14:44:53.444Z,81.20
2023-03-21T14:48:01.098Z,81.20
2023-03-21T14:51:13.161Z,81.10
2023-03-21T14:54:19.073Z,81.00
2023-03-21T14:57:28.191Z,81.00
2023-03-21T15:00:35.034Z,80.90
2023-03-21T15:03:41.730Z,80.80
2023-03-21T15:07:01.121Z,80.80
2023-03-21T15:10:10.350Z,80.60
2023-03-21T15:13:21.089Z,80.60
2023-03-21T15:16:27.320Z,80.50
2023-03-21T15:19:34.758Z,80.40
2023-03-21T15:22:46.186Z,80.40
2023-03-21T15:25:50.182Z,80.90
2023-03-21T15:28:59.211Z,80.20
2023-03-21T15:32:06.167Z,80.10
2023-03-21T15:35:17.892Z,80.00
2023-03-21T15:38:31.633Z,79.80
2023-03-21T15:41:37.565Z,79.60
2023-03-21T15:44:49.048Z,79.70
2023-03-21T15:48:00.910Z,79.50
2023-03-21T15:51:07.261Z,79.50
2023-03-21T15:54:19.590Z,79.40
2023-03-21T15:57:25.420Z,79.10
2023-03-21T16:00:40.377Z,78.90
2023-03-21T16:03:47.382Z,78.70
2023-03-21T16:06:57.813Z,78.60
2023-03-21T16:10:06.570Z,78.40
2023-03-21T16:13:13.615Z,78.20
2023-03-21T16:16:20.474Z,78.20
2023-03-21T16:19:28.977Z,78.00
2023-03-21T16:22:35.263Z,78.00
2023-03-21T16:25:44.169Z,77.90
2023-03-21T16:28:52.311Z,77.70
2023-03-21T16:31:59.977Z,77.70
2023-03-21T16:35:04.465Z,77.60
2023-03-21T16:38:11.557Z,77.50
2023-03-21T16:41:18.549Z,77.50
2023-03-21T16:44:24.607Z,77.40
2023-03-21T16:47:28.226Z,77.50
2023-03-21T16:50:37.083Z,77.50
2023-03-21T16:53:41.228Z,77.60
2023-03-21T16:56:51.759Z,77.40
2023-03-21T16:59:56.089Z,77.40
2023-03-21T17:03:03.606Z,77.40
2023-03-21T17:06:08.192Z,77.30
2023-03-21T17:09:15.667Z,77.30
2023-03-21T17:12:21.759Z,77.30
2023-03-21T17:15:27.965Z,77.30
2023-03-21T17:18:32.079Z,77.30
2023-03-21T17:21:38.019Z,77.30
2023-03-21T17:24:41.645Z,77.30
2023-03-21T17:27:51.086Z,77.40
2023-03-21T17:30:55.172Z,77.40
2023-03-21T17:34:03.442Z,77.30
2023-03-21T17:37:07.546Z,77.30
2023-03-21T17:40:15.115Z,77.30
2023-03-21T17:43:23.443Z,77.20
2023-03-21T17:46:30.493Z,77.20
2023-03-21T17:49:34.455Z,77.20
2023-03-21T17:52:40.641Z,77.30
2023-03-21T17:55:44.302Z,77.30
2023-03-21T17:58:52.222Z,77.20
2023-03-21T18:01:56.519Z,77.30
2023-03-21T18:05:02.552Z,77.30
2023-03-21T18:08:12.166Z,77.30
2023-03-21T18:11:20.186Z,77.30
2023-03-21T18:14:28.921Z,77.30
2023-03-21T18:17:36.258Z,77.20
2023-03-21T18:20:51.582Z,77.30
2023-03-21T18:23:58.539Z,77.30
2023-03-21T18:27:02.739Z,77.30
2023-03-21T18:30:45.088Z,77.30
2023-03-21T18:33:44.471Z,77.30
2023-03-21T18:36:50.594Z,77.30
2023-03-21T18:39:55.571Z,77.30
2023-03-21T18:43:59.196Z,77.30
2023-03-21T18:46:27.931Z,77.40
2023-03-21T18:52:58.102Z,77.40
2023-03-21T18:56:09.642Z,77.50
2023-03-21T18:59:14.168Z,77.50
2023-03-21T19:02:22.630Z,77.50
2023-03-21T19:05:26.803Z,77.50
2023-03-21T19:08:34.010Z,77.60
2023-03-21T19:11:41.478Z,77.70
2023-03-21T19:14:47.576Z,77.70
2023-03-21T19:18:34.040Z,77.60
2023-03-21T19:21:22.062Z,77.60
2023-03-21T19:24:28.746Z,77.60
2023-03-21T19:27:37.754Z,77.50
2023-03-21T19:30:49.639Z,77.50
2023-03-21T19:33:58.509Z,77.60
2023-03-21T19:37:02.893Z,77.60
2023-03-21T19:40:10.605Z,77.50
2023-03-21T19:43:32.277Z,78.20
2023-03-21T19:46:38.842Z,77.50
2023-03-21T19:53:10.810Z,77.60
2023-03-21T19:56:22.880Z,77.60
2023-03-21T19:59:31.482Z,77.60
2023-03-21T20:02:36.966Z,77.60
2023-03-21T20:05:45.313Z,77.60
2023-03-21T20:09:30.799Z,77.70
2023-03-21T20:12:15.595Z,77.70
2023-03-21T20:15:21.809Z,77.60
2023-03-21T20:18:29.137Z,77.80
2023-03-21T20:21:46.184Z,77.80
2023-03-21T20:24:55.738Z,77.80
2023-03-21T20:28:14.745Z,77.90
2023-03-21T20:31:23.097Z,77.90
2023-03-21T20:34:28.470Z,78.00
2023-03-21T20:37:37.967Z,78.00
2023-03-21T20:40:43.523Z,78.00
2023-03-21T20:47:13.937Z,78.10
2023-03-21T20:50:22.136Z,78.10
2023-03-21T20:53:28.626Z,78.10
2023-03-21T20:56:34.752Z,78.20
2023-03-21T20:59:38.734Z,78.30
2023-03-21T21:02:46.899Z,78.30
2023-03-21T21:05:50.807Z,78.40
2023-03-21T21:08:59.545Z,78.40
2023-03-21T21:12:07.117Z,78.50
2023-03-21T21:15:16.177Z,78.50
2023-03-21T21:18:20.426Z,78.60
2023-03-21T21:21:27.195Z,78.50
2023-03-21T21:24:33.053Z,78.60
2023-03-21T21:27:39.480Z,78.60
2023-03-21T21:30:43.336Z,78.60
2023-03-21T21:33:53.626Z,78.70
2023-03-21T21:36:57.793Z,78.70
2023-03-21T21:40:12.352Z,78.70
2023-03-21T21:43:18.285Z,78.80
2023-03-21T21:46:24.204Z,78.80
2023-03-21T21:49:28.142Z,78.80
2023-03-21T21:52:34.075Z,78.90
2023-03-21T21:55:39.940Z,78.80
2023-03-21T21:58:47.453Z,78.80
2023-03-21T22:01:51.890Z,78.80
2023-03-21T22:04:58.283Z,79.00
2023-03-21T22:08:02.395Z,79.10
2023-03-21T22:11:10.871Z,79.10
2023-03-21T22:14:15.118Z,79.20
2023-03-21T22:17:21.038Z,79.20
2023-03-21T22:20:24.925Z,79.30
2023-03-21T22:23:30.866Z,79.30
2023-03-21T22:26:37.611Z,79.20
2023-03-21T22:29:43.716Z,79.30
2023-03-21T22:32:59.384Z,79.20
2023-03-21T22:36:14.260Z,79.30
2023-03-21T22:39:18.345Z,79.30
2023-03-21T22:42:26.662Z,79.40
2023-03-21T22:45:31.819Z,79.30
2023-03-21T22:48:37.720Z,79.40
2023-03-21T22:51:41.620Z,79.50
2023-03-21T22:54:48.577Z,79.50
2023-03-21T22:57:54.420Z,79.40
2023-03-21T23:01:04.677Z,79.50
2023-03-21T23:04:08.761Z,79.60
2023-03-21T23:07:15.071Z,79.70
2023-03-21T23:10:19.828Z,79.80
2023-03-21T23:13:28.218Z,79.90
2023-03-21T23:16:34.371Z,79.90
2023-03-21T23:19:41.169Z,80.00
2023-03-21T23:22:45.415Z,80.00
2023-03-21T23:25:51.525Z,80.10
2023-03-21T23:28:57.304Z,80.10
2023-03-21T23:32:03.493Z,80.20
2023-03-21T23:35:09.142Z,80.20
2023-03-21T23:38:15.285Z,80.30
2023-03-21T23:41:21.400Z,80.30
2023-03-21T23:44:29.458Z,80.30
2023-03-21T23:47:33.325Z,80.40
2023-03-21T23:50:39.578Z,80.40
2023-03-21T23:53:44.322Z,80.40
2023-03-21T23:56:50.183Z,80.40
2023-03-21T23:59:57.932Z,80.50
